Time;durP1;ratioP1;P1;durP2;ratioP2;P2;SDS_P1;SDS_P2;PMS_P1;PMS_P2;Temp;Humidity;BMP_temperature;BMP_pressure;BME280_temperature;BME280_humidity;BME280_pressure;Samples;Min_cycle;Max_cycle;Signal;HPM_P1;HPM_P2
2023/04/28 00:01:23;;;;;;;2.60;2.40;;;18.80;55.30;19.90;100512.00;;;;5035127;28;20179;-49
2023/04/28 00:03:48;;;;;;;2.60;2.40;;;18.80;55.40;19.90;100520.00;;;;5030702;28;20233;-49
2023/04/28 00:06:14;;;;;;;2.50;2.30;;;18.80;55.40;19.90;100519.00;;;;5030465;28;20179;-51
2023/04/28 00:08:40;;;;;;;2.60;2.40;;;18.90;55.60;19.90;100474.00;;;;5030127;28;20677;-49
2023/04/28 00:11:12;;;;;;;2.37;2.17;;;18.80;56.30;19.90;100495.00;;;;5030021;28;20199;-50
2023/04/28 00:13:38;;;;;;;2.47;2.27;;;18.80;55.70;19.90;100505.00;;;;5029810;28;20198;-49
2023/04/28 00:16:04;;;;;;;2.50;2.30;;;18.80;55.70;19.90;100435.00;;;;5029825;28;20642;-51
2023/04/28 00:18:30;;;;;;;2.80;2.50;;;18.80;55.70;19.90;100501.00;;;;5029476;28;20693;-49
2023/04/28 00:20:56;;;;;;;3.50;2.57;;;18.80;55.70;19.80;100491.00;;;;5021277;28;20195;-49
2023/04/28 00:23:21;;;;;;;2.40;2.20;;;18.80;55.80;19.80;100496.00;;;;5029477;28;20183;-49
2023/04/28 00:25:51;;;;;;;2.90;2.30;;;18.80;55.80;19.80;100500.00;;;;5029317;28;20621;-50
2023/04/28 00:28:17;;;;;;;2.60;2.40;;;18.80;55.80;19.80;100481.00;;;;5030185;28;20214;-50
2023/04/28 00:30:43;;;;;;;2.47;2.27;;;18.80;55.80;19.80;100475.00;;;;5032357;28;20249;-51
2023/04/28 00:33:08;;;;;;;2.40;2.20;;;18.80;55.90;19.80;100471.00;;;;5031943;28;20184;-51
2023/04/28 00:35:34;;;;;;;2.60;2.40;;;18.80;56.00;19.80;100464.00;;;;5031133;28;20218;-50
2023/04/28 00:38:00;;;;;;;2.53;2.30;;;18.80;56.00;19.80;100452.00;;;;5036735;28;20174;-48
2023/04/28 00:40:36;;;;;;;2.43;2.23;;;18.70;56.00;19.80;100452.00;;;;5031658;28;20191;-49
2023/04/28 00:43:02;;;;;;;2.67;2.47;;;18.70;56.00;19.70;100450.00;;;;5031641;28;20195;-49
2023/04/28 00:45:28;;;;;;;2.40;2.30;;;18.70;56.00;19.70;100455.00;;;;5030156;28;20174;-49
2023/04/28 00:47:55;;;;;;;2.57;2.37;;;18.70;56.10;19.70;100448.00;;;;5031907;28;20209;-49
2023/04/28 00:50:21;;;;;;;2.60;2.40;;;18.70;56.10;19.70;100456.00;;;;5033278;28;20226;-50
2023/04/28 00:52:47;;;;;;;2.57;2.37;;;18.70;56.10;19.70;100461.00;;;;5035385;28;20281;-50
2023/04/28 00:55:13;;;;;;;2.50;2.30;;;18.70;56.10;19.70;100453.00;;;;5030113;28;20225;-50
2023/04/28 00:57:39;;;;;;;2.57;2.30;;;18.70;56.20;19.70;100453.00;;;;5028542;28;20179;-49
2023/04/28 01:00:06;;;;;;;2.40;2.20;;;18.70;56.20;19.70;100455.00;;;;5027718;28;20557;-49
2023/04/28 01:02:32;;;;;;;2.60;2.40;;;18.70;56.30;19.70;100446.00;;;;5029845;28;20186;-49
2023/04/28 01:04:58;;;;;;;2.43;2.23;;;18.70;56.30;19.60;100447.00;;;;5029079;28;20179;-49
2023/04/28 01:07:24;;;;;;;2.57;2.30;;;18.70;56.30;19.60;100441.00;;;;5027881;28;20651;-49
2023/04/28 01:09:50;;;;;;;3.20;2.37;;;18.70;56.30;19.60;100443.00;;;;5028814;28;20248;-49
2023/04/28 01:12:15;;;;;;;2.50;2.30;;;18.60;56.30;19.60;100429.00;;;;5029241;28;20593;-50
2023/04/28 01:14:41;;;;;;;2.50;2.30;;;18.60;56.30;19.60;100428.00;;;;5028934;28;20209;-49
2023/04/28 01:17:07;;;;;;;2.10;2.00;;;18.60;56.30;19.60;100429.00;;;;5028049;28;20174;-49
2023/04/28 01:19:33;;;;;;;2.30;2.10;;;18.60;56.30;19.50;100438.00;;;;5018972;28;20577;-51
2023/04/28 01:21:58;;;;;;;2.57;2.30;;;18.60;56.40;19.60;100441.00;;;;5028627;28;20234;-49
2023/04/28 01:24:24;;;;;;;2.50;2.30;;;18.60;56.40;19.60;100438.00;;;;5028321;28;20218;-50
2023/04/28 01:26:50;;;;;;;2.10;2.00;;;18.50;56.40;19.50;100439.00;;;;5028578;28;20198;-50
2023/04/28 01:29:16;;;;;;;2.40;2.20;;;18.60;56.40;19.50;100433.00;;;;5028594;28;20194;-49
2023/04/28 01:31:41;;;;;;;2.30;2.10;;;18.50;56.40;19.50;100439.00;;;;5030952;28;20214;-49
2023/04/28 01:34:07;;;;;;;2.50;2.30;;;18.50;56.40;19.50;100448.00;;;;5032024;28;20253;-50
2023/04/28 01:36:33;;;;;;;2.73;2.40;;;18.50;56.40;19.50;100446.00;;;;5032071;28;20563;-50
2023/04/28 01:38:59;;;;;;;2.23;2.13;;;18.50;56.40;19.50;100441.00;;;;5032106;28;20253;-50
2023/04/28 01:41:25;;;;;;;2.60;2.40;;;18.50;56.50;19.40;100438.00;;;;5031888;28;20275;-49
2023/04/28 01:43:51;;;;;;;2.50;2.30;;;18.50;56.50;19.40;100440.00;;;;5031715;28;20261;-49
2023/04/28 01:46:17;;;;;;;2.43;2.23;;;18.50;56.50;19.40;100439.00;;;;5031791;28;20237;-48
2023/04/28 01:48:42;;;;;;;2.20;2.00;;;18.50;56.50;19.40;100445.00;;;;5031445;28;20206;-49
2023/04/28 01:51:08;;;;;;;2.20;2.10;;;18.50;56.60;19.40;100440.00;;;;5031801;28;20210;-50
2023/04/28 01:53:34;;;;;;;2.70;2.50;;;18.50;56.60;19.40;100440.00;;;;5031557;28;20178;-49
2023/04/28 01:55:59;;;;;;;2.37;2.17;;;18.50;56.60;19.40;100426.00;;;;5031319;28;20197;-50
2023/04/28 01:58:25;;;;;;;2.40;2.20;;;18.40;56.60;19.40;100438.00;;;;5031931;28;20537;-49
2023/04/28 02:00:51;;;;;;;2.43;2.23;;;18.40;56.60;19.40;100442.00;;;;5031603;28;20175;-50
2023/04/28 02:03:17;;;;;;;2.30;2.10;;;18.40;56.70;19.30;100434.00;;;;5031028;28;20206;-50
2023/04/28 02:05:42;;;;;;;2.50;2.30;;;18.40;56.70;19.30;100443.00;;;;5031186;28;20179;-49
2023/04/28 02:08:08;;;;;;;2.50;2.30;;;18.40;57.40;19.30;100439.00;;;;5030889;28;20520;-50
2023/04/28 02:10:34;;;;;;;2.70;2.50;;;18.40;56.80;19.30;100439.00;;;;5030809;28;20252;-49
2023/04/28 02:12:59;;;;;;;2.60;2.40;;;18.40;56.90;19.30;100433.00;;;;5031160;28;20183;-49
2023/04/28 02:15:25;;;;;;;2.17;2.07;;;18.40;56.90;19.30;100431.00;;;;5031005;28;20190;-48
2023/04/28 02:17:51;;;;;;;2.40;2.20;;;18.40;56.90;19.30;100438.00;;;;5030844;28;20183;-50
2023/04/28 02:20:17;;;;;;;2.50;2.30;;;18.40;56.90;19.20;100437.00;;;;5030757;28;20206;-50
2023/04/28 02:22:43;;;;;;;2.60;2.30;;;18.30;56.90;19.20;100438.00;;;;5029669;28;20210;-49
2023/04/28 02:25:08;;;;;;;2.30;2.20;;;18.40;57.00;19.20;100440.00;;;;5030784;28;20240;-48
2023/04/28 02:27:38;;;;;;;2.30;2.10;;;18.30;56.90;19.20;100432.00;;;;5030749;28;20255;-49
2023/04/28 02:30:05;;;;;;;2.43;2.23;;;18.30;56.90;19.20;100425.00;;;;5030534;28;20202;-48
2023/04/28 02:32:31;;;;;;;2.40;2.20;;;18.30;56.90;19.20;100426.00;;;;5030561;28;20266;-48
2023/04/28 02:34:56;;;;;;;2.50;2.30;;;18.30;56.90;19.20;100423.00;;;;5033780;28;20187;-48
2023/04/28 02:37:22;;;;;;;2.50;2.30;;;18.30;56.90;19.20;100429.00;;;;5039778;28;20667;-49
2023/04/28 02:39:48;;;;;;;2.37;2.20;;;18.30;57.00;19.20;100420.00;;;;5032288;28;20213;-50
2023/04/28 02:42:14;;;;;;;2.20;2.10;;;18.30;57.00;19.20;100410.00;;;;5032468;28;20171;-51
2023/04/28 02:44:40;;;;;;;2.40;2.20;;;18.30;57.00;19.20;100412.00;;;;5031542;28;20708;-48
2023/04/28 02:47:05;;;;;;;2.50;2.30;;;18.30;57.00;19.10;100419.00;;;;5032111;28;20182;-50
2023/04/28 02:49:31;;;;;;;3.30;2.40;;;18.30;57.00;19.10;100413.00;;;;5035431;28;20226;-49
2023/04/28 02:51:57;;;;;;;2.30;2.10;;;18.30;57.00;19.10;100415.00;;;;5036704;28;20216;-47
2023/04/28 02:54:28;;;;;;;2.57;2.37;;;18.30;57.10;19.10;100411.00;;;;5031833;28;20202;-49
2023/04/28 02:56:55;;;;;;;2.50;2.30;;;18.20;57.10;19.10;100423.00;;;;5031769;28;20179;-49
2023/04/28 02:59:21;;;;;;;2.37;2.20;;;18.20;57.10;19.10;100413.00;;;;5031101;28;20660;-48
2023/04/28 03:01:47;;;;;;;2.50;2.30;;;18.20;57.10;19.10;100409.00;;;;5030745;28;20641;-49
2023/04/28 03:04:13;;;;;;;2.50;2.30;;;18.20;57.10;19.10;100407.00;;;;5030096;28;20183;-48
2023/04/28 03:06:39;;;;;;;2.50;2.30;;;18.20;57.20;19.10;100414.00;;;;5031486;28;20197;-50
2023/04/28 03:09:05;;;;;;;4.50;2.57;;;18.20;57.20;19.10;100410.00;;;;5029818;28;20279;-50
2023/04/28 03:11:31;;;;;;;2.80;2.60;;;18.20;57.20;19.10;100407.00;;;;5029781;28;20217;-50
2023/04/28 03:13:57;;;;;;;5.27;2.50;;;18.20;57.20;19.00;100402.00;;;;5028143;28;20183;-48
2023/04/28 03:16:22;;;;;;;2.87;2.20;;;18.10;57.10;19.00;100401.00;;;;5030465;28;20400;-49
2023/04/28 03:18:48;;;;;;;5.53;2.40;;;18.20;57.30;19.00;100404.00;;;;5030446;28;20199;-51
2023/04/28 03:21:14;;;;;;;3.87;2.40;;;18.10;57.20;19.00;100399.00;;;;5029847;28;20190;-50
2023/04/28 03:23:40;;;;;;;3.93;2.40;;;18.10;57.20;19.00;100375.00;;;;5030025;28;20192;-50
2023/04/28 03:26:06;;;;;;;2.40;2.20;;;18.10;57.30;19.00;100364.00;;;;5029650;28;20272;-49
2023/04/28 03:28:32;;;;;;;2.60;2.40;;;18.10;57.30;19.00;100358.00;;;;5029915;28;20365;-49
2023/04/28 03:30:57;;;;;;;6.23;2.37;;;18.10;57.30;19.00;100367.00;;;;5028975;28;20846;-48
2023/04/28 03:33:23;;;;;;;2.53;2.10;;;18.10;57.30;19.00;100372.00;;;;5029840;28;20646;-48
2023/04/28 03:35:49;;;;;;;3.13;2.10;;;18.10;57.30;19.00;100371.00;;;;5029626;28;20184;-49
2023/04/28 03:38:15;;;;;;;6.23;2.40;;;18.10;57.30;19.00;100374.00;;;;5029960;28;20666;-48
2023/04/28 03:40:41;;;;;;;2.70;2.40;;;18.10;57.30;19.00;100358.00;;;;5029875;28;20297;-49
2023/04/28 03:43:06;;;;;;;5.10;2.60;;;18.10;57.30;19.00;100361.00;;;;5029504;28;20605;-49
2023/04/28 03:45:32;;;;;;;4.07;2.53;;;18.10;57.30;18.90;100361.00;;;;5029516;28;20193;-49
2023/04/28 03:47:58;;;;;;;2.70;2.50;;;18.10;57.30;18.90;100361.00;;;;5030612;28;20672;-50
2023/04/28 03:50:23;;;;;;;5.50;2.77;;;18.10;57.60;18.90;100363.00;;;;5030432;28;20201;-49
2023/04/28 03:52:49;;;;;;;3.93;2.70;;;18.10;57.30;18.90;100363.00;;;;5030074;28;20560;-48
2023/04/28 03:55:15;;;;;;;4.80;2.87;;;18.00;57.20;18.90;100366.00;;;;5028274;28;20176;-49
2023/04/28 03:57:41;;;;;;;4.43;2.70;;;18.00;57.20;18.90;100357.00;;;;5030796;28;20831;-48
2023/04/28 04:00:07;;;;;;;4.03;2.90;;;18.00;57.20;18.80;100354.00;;;;5030524;28;20215;-49
2023/04/28 04:02:33;;;;;;;3.93;2.77;;;18.00;57.20;18.80;100342.00;;;;5030680;28;20252;-50
2023/04/28 04:04:59;;;;;;;6.23;2.80;;;18.00;57.20;18.80;100335.00;;;;5038795;28;20281;-50
2023/04/28 04:07:25;;;;;;;3.53;2.80;;;18.00;57.20;18.80;100310.00;;;;5039528;28;20185;-49
2023/04/28 04:09:50;;;;;;;7.30;3.03;;;18.00;57.20;18.80;100302.00;;;;5018411;28;20197;-50
2023/04/28 04:12:16;;;;;;;4.67;3.13;;;18.00;57.10;18.80;100299.00;;;;5030454;28;20243;-51
2023/04/28 04:14:42;;;;;;;5.17;2.90;;;18.00;57.10;18.70;100291.00;;;;5030166;28;20202;-49
2023/04/28 04:17:08;;;;;;;6.87;3.30;;;18.00;57.70;18.70;100295.00;;;;5030052;28;20173;-49
2023/04/28 04:19:33;;;;;;;4.00;3.23;;;17.90;57.00;18.70;100294.00;;;;5029750;28;20227;-50
2023/04/28 04:21:59;;;;;;;5.80;3.30;;;17.90;57.60;18.70;100283.00;;;;5023159;28;20186;-49
2023/04/28 04:24:25;;;;;;;7.47;3.50;;;17.90;57.00;18.70;100278.00;;;;5023075;28;20265;-49
2023/04/28 04:26:50;;;;;;;5.80;3.23;;;17.90;57.00;18.70;100280.00;;;;5029373;28;20201;-49
2023/04/28 04:29:16;;;;;;;11.20;3.63;;;17.90;57.00;18.70;100270.00;;;;5029875;28;20192;-50
2023/04/28 04:31:44;;;;;;;6.37;3.37;;;17.90;57.00;18.70;100264.00;;;;5029479;28;20692;-50
2023/04/28 04:34:11;;;;;;;5.30;3.40;;;17.90;57.00;18.60;100259.00;;;;5031180;28;20268;-48
2023/04/28 04:36:36;;;;;;;5.27;3.00;;;17.90;57.00;18.60;100280.00;;;;5040486;28;20182;-49
2023/04/28 04:39:02;;;;;;;8.80;3.53;;;17.90;57.00;18.60;100299.00;;;;5032242;28;20696;-49
2023/04/28 04:41:28;;;;;;;6.57;3.30;;;17.90;57.00;18.60;100288.00;;;;5031684;28;20264;-48
2023/04/28 04:43:54;;;;;;;7.33;3.40;;;17.80;56.90;18.60;100287.00;;;;5029958;28;20674;-49
2023/04/28 04:46:19;;;;;;;4.53;3.20;;;17.90;57.00;18.60;100294.00;;;;5029365;28;20230;-50
2023/04/28 04:48:45;;;;;;;4.00;3.00;;;17.80;56.90;18.60;100293.00;;;;5032141;28;20232;-48
2023/04/28 04:51:11;;;;;;;6.83;3.57;;;17.80;56.90;18.60;100288.00;;;;5026389;28;20214;-47
2023/04/28 04:53:37;;;;;;;5.23;3.27;;;17.80;56.90;18.60;100291.00;;;;5032648;28;20185;-49
2023/04/28 04:56:03;;;;;;;5.10;3.23;;;17.80;57.00;18.50;100277.00;;;;5029780;28;20668;-48
2023/04/28 04:58:28;;;;;;;5.63;3.40;;;17.80;57.00;18.50;100284.00;;;;5029128;28;20204;-48
2023/04/28 05:00:54;;;;;;;6.17;3.30;;;17.80;57.00;18.50;100284.00;;;;5028834;28;20684;-48
2023/04/28 05:03:20;;;;;;;5.10;3.33;;;17.80;57.00;18.50;100281.00;;;;5028895;28;20175;-48
2023/04/28 05:05:47;;;;;;;5.23;3.40;;;17.80;57.00;18.50;100281.00;;;;5029365;28;20197;-48
2023/04/28 05:08:13;;;;;;;8.33;3.50;;;17.80;57.10;18.50;100280.00;;;;5031939;28;20182;-49
2023/04/28 05:10:38;;;;;;;4.87;3.30;;;17.70;57.00;18.50;100285.00;;;;5033149;28;20584;-49
2023/04/28 05:13:04;;;;;;;3.33;2.90;;;17.70;57.00;18.50;100290.00;;;;5033421;28;20177;-49
2023/04/28 05:15:30;;;;;;;4.17;3.20;;;17.70;57.00;18.50;100274.00;;;;5032383;28;20185;-49
2023/04/28 05:17:56;;;;;;;4.37;3.30;;;17.70;57.00;18.50;100285.00;;;;5032741;28;20188;-49
2023/04/28 05:20:22;;;;;;;5.23;3.20;;;17.70;57.10;18.50;100284.00;;;;5033162;28;20301;-50
2023/04/28 05:22:48;;;;;;;5.30;3.40;;;17.70;57.20;18.50;100279.00;;;;5032738;28;20548;-48
2023/04/28 05:25:13;;;;;;;3.20;2.90;;;17.70;57.20;18.50;100270.00;;;;5030353;28;20184;-47
2023/04/28 05:27:39;;;;;;;5.53;3.00;;;17.70;57.30;18.50;100274.00;;;;5032780;28;20228;-49
2023/04/28 05:30:09;;;;;;;6.20;3.20;;;17.70;57.20;18.40;100277.00;;;;5031347;28;20214;-49
2023/04/28 05:32:35;;;;;;;4.17;3.17;;;17.70;57.30;18.40;100271.00;;;;5032194;28;20629;-49
2023/04/28 05:35:01;;;;;;;5.37;3.00;;;17.70;57.30;18.40;100272.00;;;;5031673;28;20669;-49
2023/04/28 05:37:27;;;;;;;3.70;2.93;;;17.70;57.30;18.40;100278.00;;;;5032253;28;20176;-49
2023/04/28 05:39:53;;;;;;;3.80;2.90;;;17.70;57.30;18.40;100274.00;;;;5031480;28;20205;-49
2023/04/28 05:42:18;;;;;;;3.90;3.03;;;17.60;57.20;18.40;100292.00;;;;5031539;28;20257;-49
2023/04/28 05:44:45;;;;;;;3.00;2.80;;;17.70;57.30;18.40;100284.00;;;;5032478;28;20177;-49
2023/04/28 05:47:10;;;;;;;3.67;3.10;;;17.60;57.20;18.30;100270.00;;;;5031330;28;20178;-48
2023/04/28 05:49:36;;;;;;;3.20;2.90;;;17.60;57.30;18.40;100287.00;;;;5031367;28;20344;-49
2023/04/28 05:52:02;;;;;;;3.30;2.60;;;17.60;57.30;18.30;100275.00;;;;5031365;28;20309;-49
2023/04/28 05:54:28;;;;;;;4.10;3.10;;;17.60;57.30;18.30;100281.00;;;;5030754;28;20186;-49
2023/04/28 05:56:54;;;;;;;3.57;3.03;;;17.60;57.30;18.30;100277.00;;;;5032042;28;20182;-49
2023/04/28 05:59:20;;;;;;;3.30;2.80;;;17.60;57.30;18.30;100280.00;;;;5032365;28;20276;-49
2023/04/28 06:01:46;;;;;;;3.43;2.90;;;17.60;57.30;18.30;100262.00;;;;5032156;28;20192;-49
2023/04/28 06:04:12;;;;;;;2.97;2.77;;;17.60;57.30;18.30;100273.00;;;;5031877;28;20171;-49
2023/04/28 06:06:37;;;;;;;3.83;2.80;;;17.60;57.40;18.30;100261.00;;;;5030334;28;20199;-49
2023/04/28 06:09:03;;;;;;;4.23;3.00;;;17.60;57.50;18.30;100265.00;;;;5031296;28;20219;-49
2023/04/28 06:11:29;;;;;;;3.63;2.87;;;17.60;57.50;18.30;100263.00;;;;5032557;28;20739;-49
2023/04/28 06:13:54;;;;;;;2.83;2.63;;;17.60;57.50;18.30;100268.00;;;;5031981;28;20562;-49
2023/04/28 06:16:22;;;;;;;3.10;2.80;;;17.60;57.50;18.20;100245.00;;;;5030852;28;20178;-49
2023/04/28 06:18:48;;;;;;;3.13;2.90;;;17.50;57.50;18.20;100260.00;;;;5022027;28;20204;-48
2023/04/28 06:21:14;;;;;;;3.90;2.70;;;17.50;57.50;18.20;100253.00;;;;5032272;28;20261;-48
2023/04/28 06:23:41;;;;;;;4.00;3.00;;;17.50;57.60;18.20;100249.00;;;;5031639;28;20185;-49
2023/04/28 06:26:07;;;;;;;3.13;2.77;;;17.50;57.50;18.20;100246.00;;;;5032020;28;20196;-50
2023/04/28 06:28:33;;;;;;;3.07;2.77;;;17.50;57.60;18.20;100258.00;;;;5031963;28;20294;-47
2023/04/28 06:30:59;;;;;;;3.37;2.93;;;17.50;57.60;18.20;100253.00;;;;5027921;28;20291;-48
2023/04/28 06:33:25;;;;;;;3.10;2.80;;;17.50;57.60;18.20;100256.00;;;;5034717;28;20202;-49
2023/04/28 06:35:51;;;;;;;3.00;2.73;;;17.50;57.60;18.20;100256.00;;;;5036435;28;20291;-48
2023/04/28 06:38:17;;;;;;;3.80;2.60;;;17.50;57.80;18.20;100257.00;;;;5034271;28;20199;-48
2023/04/28 06:40:44;;;;;;;3.23;2.80;;;17.50;57.90;18.20;100259.00;;;;5016352;28;20190;-52
2023/04/28 06:43:10;;;;;;;3.97;2.73;;;17.50;57.90;18.30;100260.00;;;;5033305;28;20532;-52
2023/04/28 06:45:36;;;;;;;3.17;2.63;;;17.50;58.00;18.30;100261.00;;;;5033331;28;20664;-52
2023/04/28 06:48:02;;;;;;;3.30;3.00;;;17.40;58.00;18.30;100260.00;;;;5035243;28;20186;-51
2023/04/28 06:50:28;;;;;;;4.87;2.63;;;17.40;58.10;18.30;100256.00;;;;5040290;28;20266;-52
2023/04/28 06:52:53;;;;;;;4.30;2.90;;;17.50;58.20;18.40;100255.00;;;;5029935;28;20183;-51
2023/04/28 06:55:19;;;;;;;3.57;2.70;;;17.40;58.10;18.40;100253.00;;;;5031898;28;20645;-52
2023/04/28 06:57:45;;;;;;;3.00;2.80;;;17.50;58.30;18.40;100252.00;;;;5021290;28;20218;-52
2023/04/28 07:00:11;;;;;;;2.70;2.50;;;17.50;58.40;18.40;100249.00;;;;5016957;28;20259;-52
2023/04/28 07:02:37;;;;;;;5.63;2.70;;;17.50;58.40;18.40;100255.00;;;;5027910;28;20182;-52
2023/04/28 07:05:03;;;;;;;4.47;2.60;;;17.50;58.40;18.40;100254.00;;;;5028623;28;20179;-52
2023/04/28 07:07:29;;;;;;;4.63;2.63;;;17.50;58.50;18.40;100263.00;;;;5029519;28;20179;-52
2023/04/28 07:09:55;;;;;;;2.83;2.63;;;17.50;58.50;18.40;100261.00;;;;5030157;28;20205;-52
2023/04/28 07:12:21;;;;;;;2.83;2.63;;;17.40;58.40;18.40;100264.00;;;;5029751;28;20199;-52
2023/04/28 07:14:47;;;;;;;2.90;2.50;;;17.40;58.40;18.40;100260.00;;;;5030622;28;20171;-53
2023/04/28 07:17:13;;;;;;;3.47;2.57;;;17.40;58.40;18.40;100268.00;;;;5031467;28;20179;-52
2023/04/28 07:19:39;;;;;;;4.33;2.60;;;17.50;58.90;18.40;100273.00;;;;5031322;28;20251;-52
2023/04/28 07:22:05;;;;;;;3.90;2.80;;;17.50;58.90;18.40;100268.00;;;;5031357;28;20703;-52
2023/04/28 07:24:31;;;;;;;3.13;2.53;;;17.50;58.90;18.40;100266.00;;;;5029965;28;20190;-54
2023/04/28 07:26:57;;;;;;;2.87;2.67;;;17.50;58.90;18.40;100271.00;;;;5013456;28;20188;-52
2023/04/28 07:29:23;;;;;;;2.70;2.50;;;17.50;58.90;18.40;100280.00;;;;5029462;28;20198;-52
2023/04/28 07:31:49;;;;;;;3.03;2.73;;;17.50;59.10;18.40;100277.00;;;;5030592;28;20207;-52
2023/04/28 07:34:15;;;;;;;3.27;2.73;;;17.50;59.10;18.40;100262.00;;;;5030731;28;20249;-53
2023/04/28 07:36:40;;;;;;;4.07;2.87;;;17.50;59.10;18.40;100271.00;;;;5029763;28;20274;-53
2023/04/28 07:39:06;;;;;;;2.77;2.50;;;17.50;59.20;18.40;100274.00;;;;5030601;28;20196;-52
2023/04/28 07:41:38;;;;;;;2.87;2.63;;;17.50;59.20;18.40;100271.00;;;;5030340;28;20620;-52
2023/04/28 07:44:05;;;;;;;4.70;2.53;;;17.50;59.30;18.40;100275.00;;;;5030641;28;20189;-54
2023/04/28 07:46:31;;;;;;;3.93;2.70;;;17.40;59.40;18.40;100286.00;;;;5030441;28;20182;-53
2023/04/28 07:48:57;;;;;;;3.40;2.57;;;17.40;59.40;18.40;100262.00;;;;5030200;28;20217;-51
2023/04/28 07:51:22;;;;;;;2.87;2.43;;;17.50;59.40;18.40;100272.00;;;;5028826;28;20199;-52
2023/04/28 07:53:48;;;;;;;3.97;2.40;;;17.50;59.30;18.40;100278.00;;;;5029681;28;20235;-52
2023/04/28 07:56:14;;;;;;;3.10;2.50;;;17.50;59.30;18.40;100201.00;;;;5030264;28;20689;-52
2023/04/28 07:58:40;;;;;;;2.60;2.40;;;17.50;59.20;18.40;100287.00;;;;5030737;28;20206;-52
2023/04/28 08:01:06;;;;;;;3.10;2.57;;;17.50;59.10;18.40;100271.00;;;;5030964;28;20198;-52
2023/04/28 08:03:32;;;;;;;6.93;2.40;;;17.50;59.10;18.40;100284.00;;;;5030517;28;20561;-52
2023/04/28 08:05:57;;;;;;;2.60;2.40;;;17.50;59.20;18.40;100279.00;;;;5029972;28;20186;-51
2023/04/28 08:08:23;;;;;;;2.60;2.40;;;17.50;59.20;18.40;100267.00;;;;5029912;28;20200;-53
2023/04/28 08:10:49;;;;;;;2.80;2.60;;;17.50;59.30;18.40;100274.00;;;;5031872;28;20202;-53
2023/04/28 08:13:15;;;;;;;5.87;2.70;;;17.50;59.30;18.40;100277.00;;;;5038879;28;20186;-52
2023/04/28 08:15:41;;;;;;;2.70;2.50;;;17.50;59.30;18.40;100274.00;;;;5038872;28;20259;-54
2023/04/28 08:18:07;;;;;;;3.47;2.70;;;17.50;59.30;18.40;100272.00;;;;5032773;28;20637;-51
2023/04/28 08:20:33;;;;;;;2.87;2.60;;;17.50;59.20;18.40;100264.00;;;;5026873;28;20247;-52
2023/04/28 08:22:59;;;;;;;4.27;2.60;;;17.40;59.20;18.40;100264.00;;;;5029207;28;20191;-53
2023/04/28 08:25:25;;;;;;;3.83;2.67;;;17.40;59.20;18.40;100259.00;;;;5029522;28;20672;-53
2023/04/28 08:27:51;;;;;;;3.07;2.70;;;17.50;59.30;18.40;100271.00;;;;5029422;28;20226;-54
2023/04/28 08:30:17;;;;;;;2.80;2.60;;;17.40;59.20;18.40;100268.00;;;;5029559;28;20584;-54
2023/04/28 08:32:42;;;;;;;5.60;2.47;;;17.40;59.20;18.40;100266.00;;;;5028769;28;20175;-53
2023/04/28 08:35:08;;;;;;;2.57;2.37;;;17.50;59.30;18.40;100274.00;;;;5035035;28;20211;-53
2023/04/28 08:37:34;;;;;;;3.60;2.40;;;17.40;59.20;18.40;100265.00;;;;5035147;28;20661;-53
2023/04/28 08:40:01;;;;;;;2.83;2.30;;;17.40;59.20;18.40;100274.00;;;;5029024;28;20220;-53
2023/04/28 08:42:33;;;;;;;3.83;2.30;;;17.40;59.30;18.40;100265.00;;;;5029960;28;20622;-53
2023/04/28 08:44:58;;;;;;;2.60;2.40;;;17.40;59.30;18.40;100267.00;;;;5029561;28;20208;-52
2023/04/28 08:47:32;;;;;;;4.00;2.50;;;17.40;59.20;18.40;100266.00;;;;5034113;28;20185;-52
2023/04/28 08:50:08;;;;;;;2.70;2.50;;;17.40;59.30;18.40;100258.00;;;;5041921;28;20205;-52
2023/04/28 08:52:34;;;;;;;4.00;2.60;;;17.40;59.30;18.40;100260.00;;;;5023088;28;20188;-52
2023/04/28 08:55:08;;;;;;;3.13;2.37;;;17.40;59.30;18.40;100261.00;;;;5028683;28;20179;-53
2023/04/28 08:57:41;;;;;;;3.10;2.40;;;17.40;59.30;18.40;100255.00;;;;5029472;28;20175;-52
2023/04/28 09:00:08;;;;;;;2.77;2.37;;;17.40;59.30;18.40;100265.00;;;;5028490;28;20245;-51
2023/04/28 09:02:36;;;;;;;2.93;2.50;;;17.40;59.40;18.40;100274.00;;;;5029091;28;20176;-51
2023/04/28 09:05:03;;;;;;;3.23;2.20;;;17.40;59.40;18.40;100280.00;;;;5029536;28;20210;-50
2023/04/28 09:07:29;;;;;;;3.17;2.40;;;17.40;59.40;18.40;100284.00;;;;5029018;28;20171;-51
2023/04/28 09:10:21;;;;;;;3.03;2.40;;;17.40;59.40;18.40;100279.00;;;;5029282;28;20223;-51
2023/04/28 09:12:50;;;;;;;2.83;2.40;;;17.30;59.40;18.30;100282.00;;;;5028695;28;20279;-51
2023/04/28 09:15:31;;;;;;;2.80;2.30;;;17.40;59.40;18.40;100278.00;;;;5029065;28;20191;-52
2023/04/28 09:17:57;;;;;;;2.50;2.30;;;17.30;59.40;18.40;100276.00;;;;5028960;28;20210;-51
2023/04/28 09:20:25;;;;;;;2.87;2.40;;;17.30;59.50;18.40;100267.00;;;;5028800;28;20215;-52
2023/04/28 09:22:51;;;;;;;2.90;2.60;;;17.40;59.50;18.40;100278.00;;;;5027510;28;20636;-51
2023/04/28 09:25:18;;;;;;;2.67;2.23;;;17.30;59.50;18.30;100271.00;;;;5027489;28;20300;-51
2023/04/28 09:27:44;;;;;;;2.90;2.30;;;17.40;59.50;18.30;100273.00;;;;5027965;28;20210;-51
2023/04/28 09:30:10;;;;;;;2.83;2.40;;;17.40;59.50;18.40;100271.00;;;;5029477;28;20202;-52
2023/04/28 09:32:36;;;;;;;2.87;2.60;;;17.30;59.50;18.30;100269.00;;;;5029165;28;20179;-52
2023/04/28 09:35:03;;;;;;;2.83;2.43;;;17.40;59.50;18.40;100274.00;;;;5029034;28;20234;-52
2023/04/28 09:37:30;;;;;;;2.50;2.30;;;17.40;59.50;18.30;100265.00;;;;5029435;28;20182;-52
2023/04/28 09:39:57;;;;;;;2.60;2.40;;;17.30;59.50;18.40;100257.00;;;;5028933;28;20218;-52
2023/04/28 09:42:41;;;;;;;2.50;2.30;;;17.30;59.50;18.40;100261.00;;;;5029067;28;20265;-52
2023/04/28 09:45:08;;;;;;;2.60;2.23;;;17.30;59.50;18.30;100265.00;;;;5029658;28;20614;-52
2023/04/28 09:47:37;;;;;;;2.50;2.30;;;17.30;59.50;18.30;100268.00;;;;5029425;28;20263;-52
2023/04/28 09:50:05;;;;;;;2.80;2.10;;;17.40;59.50;18.30;100267.00;;;;5029425;28;20665;-52
2023/04/28 09:52:33;;;;;;;2.37;2.17;;;17.40;59.50;18.40;100277.00;;;;5029252;28;20183;-51
2023/04/28 09:55:00;;;;;;;2.77;2.23;;;17.40;59.50;18.30;100270.00;;;;5031190;28;20195;-51
2023/04/28 09:57:26;;;;;;;2.50;2.30;;;17.30;59.50;18.30;100257.00;;;;5031122;28;20203;-51
2023/04/28 09:59:52;;;;;;;2.40;2.20;;;17.40;59.50;18.40;100262.00;;;;5033393;28;20261;-51
2023/04/28 10:02:20;;;;;;;2.53;2.33;;;17.30;59.50;18.40;100266.00;;;;5035178;28;20180;-52
2023/04/28 10:04:50;;;;;;;2.53;2.33;;;17.40;59.50;18.40;100260.00;;;;5031507;28;20276;-51
2023/04/28 10:07:16;;;;;;;2.20;2.10;;;17.40;59.50;18.40;100264.00;;;;5032436;28;20182;-51
2023/04/28 10:09:49;;;;;;;3.97;2.30;;;17.30;59.50;18.40;100259.00;;;;5027124;28;20208;-52
2023/04/28 10:12:20;;;;;;;3.27;2.43;;;17.30;59.50;18.40;100255.00;;;;5016347;28;20619;-52
2023/04/28 10:14:53;;;;;;;3.87;2.33;;;17.30;59.50;18.40;100266.00;;;;5026522;28;20513;-52
2023/04/28 10:17:20;;;;;;;4.40;2.30;;;17.40;59.50;18.40;100248.00;;;;5031207;28;20183;-52
2023/04/28 10:19:47;;;;;;;3.47;2.50;;;17.30;59.60;18.40;100260.00;;;;5033357;28;20202;-52
2023/04/28 10:22:57;;;;;;;3.57;2.30;;;17.30;59.60;18.40;100259.00;;;;5031149;28;20179;-51
2023/04/28 10:25:34;;;;;;;4.13;2.47;;;17.30;59.60;18.40;100261.00;;;;5031381;28;20540;-51
2023/04/28 10:28:06;;;;;;;4.00;2.47;;;17.30;59.50;18.40;100256.00;;;;5032074;28;20273;-51
2023/04/28 10:30:32;;;;;;;4.67;2.30;;;17.30;59.50;18.40;100266.00;;;;5030732;28;20208;-51
2023/04/28 10:33:22;;;;;;;4.57;2.50;;;17.30;59.50;18.40;100252.00;;;;5038541;28;20239;-51
2023/04/28 10:35:48;;;;;;;4.03;2.33;;;17.40;59.50;18.10;100249.00;;;;5038448;28;20192;-51
2023/04/28 10:38:14;;;;;;;4.23;2.50;;;17.40;59.60;18.40;100254.00;;;;5034639;28;20552;-51
2023/04/28 10:40:44;;;;;;;5.20;2.53;;;17.30;60.50;18.30;100254.00;;;;5032541;28;20193;-51
2023/04/28 10:43:36;;;;;;;6.13;2.60;;;17.40;59.70;18.40;100265.00;;;;5047998;28;20320;-51
2023/04/28 10:46:06;;;;;;;4.73;2.40;;;17.40;59.80;18.30;100262.00;;;;5032709;28;20326;-53